sensor_id;sensor_type;location;lat;lon;timestamp;P1;durP1;ratioP1;P2;durP2;ratioP2
73107;SDS011;61559;50.476;15.588;2023-08-07T00:01:05;1.30;;;1.20;;
73107;SDS011;61559;50.476;15.588;2023-08-07T00:03:36;1.30;;;1.20;;
73107;SDS011;61559;50.476;15.588;2023-08-07T00:06:07;1.40;;;1.30;;
73107;SDS011;61559;50.476;15.588;2023-08-07T00:08:38;1.70;;;1.50;;
73107;SDS011;61559;50.476;15.588;2023-08-07T00:11:10;1.90;;;1.80;;
73107;SDS011;61559;50.476;15.588;2023-08-07T00:13:41;1.50;;;1.40;;
73107;SDS011;61559;50.476;15.588;2023-08-07T00:16:12;1.60;;;1.50;;
73107;SDS011;61559;50.476;15.588;2023-08-07T00:18:43;1.70;;;1.60;;
73107;SDS011;61559;50.476;15.588;2023-08-07T00:21:14;1.70;;;1.60;;
73107;SDS011;61559;50.476;15.588;2023-08-07T00:23:45;3.40;;;1.70;;
73107;SDS011;61559;50.476;15.588;2023-08-07T00:26:17;1.40;;;1.30;;
73107;SDS011;61559;50.476;15.588;2023-08-07T00:28:48;1.80;;;1.40;;
73107;SDS011;61559;50.476;15.588;2023-08-07T00:31:19;1.10;;;1.00;;
73107;SDS011;61559;50.476;15.588;2023-08-07T00:33:51;1.30;;;1.20;;
73107;SDS011;61559;50.476;15.588;2023-08-07T00:36:23;1.40;;;1.00;;
73107;SDS011;61559;50.476;15.588;2023-08-07T00:38:56;0.90;;;0.90;;
73107;SDS011;61559;50.476;15.588;2023-08-07T00:41:28;0.90;;;0.80;;
73107;SDS011;61559;50.476;15.588;2023-08-07T00:43:59;1.00;;;1.00;;
73107;SDS011;61559;50.476;15.588;2023-08-07T00:46:30;1.10;;;1.00;;
73107;SDS011;61559;50.476;15.588;2023-08-07T00:49:01;1.50;;;1.40;;
73107;SDS011;61559;50.476;15.588;2023-08-07T00:51:32;7.90;;;1.60;;
73107;SDS011;61559;50.476;15.588;2023-08-07T00:54:04;2.40;;;1.40;;
73107;SDS011;61559;50.476;15.588;2023-08-07T00:56:37;1.50;;;1.40;;
73107;SDS011;61559;50.476;15.588;2023-08-07T00:59:08;1.60;;;1.50;;
73107;SDS011;61559;50.476;15.588;2023-08-07T01:01:40;1.60;;;1.50;;
73107;SDS011;61559;50.476;15.588;2023-08-07T01:04:11;3.10;;;1.80;;
73107;SDS011;61559;50.476;15.588;2023-08-07T01:06:42;3.00;;;1.90;;
73107;SDS011;61559;50.476;15.588;2023-08-07T01:09:13;2.00;;;1.90;;
73107;SDS011;61559;50.476;15.588;2023-08-07T01:11:45;2.70;;;2.20;;
73107;SDS011;61559;50.476;15.588;2023-08-07T01:14:22;2.60;;;2.20;;
73107;SDS011;61559;50.476;15.588;2023-08-07T01:17:00;2.50;;;2.10;;
73107;SDS011;61559;50.476;15.588;2023-08-07T01:19:34;2.40;;;2.20;;
73107;SDS011;61559;50.476;15.588;2023-08-07T01:22:06;2.50;;;2.30;;
73107;SDS011;61559;50.476;15.588;2023-08-07T01:24:38;2.80;;;2.30;;
73107;SDS011;61559;50.476;15.588;2023-08-07T01:27:19;3.70;;;2.70;;
73107;SDS011;61559;50.476;15.588;2023-08-07T01:30:01;2.60;;;2.40;;
73107;SDS011;61559;50.476;15.588;2023-08-07T01:32:41;3.90;;;2.90;;
73107;SDS011;61559;50.476;15.588;2023-08-07T01:35:29;2.80;;;2.50;;
73107;SDS011;61559;50.476;15.588;2023-08-07T01:38:02;3.40;;;2.70;;
73107;SDS011;61559;50.476;15.588;2023-08-07T01:40:34;2.70;;;2.30;;
73107;SDS011;61559;50.476;15.588;2023-08-07T01:43:06;3.60;;;2.60;;
73107;SDS011;61559;50.476;15.588;2023-08-07T01:45:38;2.50;;;2.30;;
73107;SDS011;61559;50.476;15.588;2023-08-07T01:48:09;3.40;;;2.60;;
73107;SDS011;61559;50.476;15.588;2023-08-07T01:50:41;2.50;;;2.30;;
73107;SDS011;61559;50.476;15.588;2023-08-07T01:53:12;2.50;;;2.30;;
73107;SDS011;61559;50.476;15.588;2023-08-07T01:55:43;2.90;;;2.70;;
73107;SDS011;61559;50.476;15.588;2023-08-07T01:58:14;3.40;;;2.40;;
73107;SDS011;61559;50.476;15.588;2023-08-07T02:00:45;2.30;;;2.10;;
73107;SDS011;61559;50.476;15.588;2023-08-07T02:03:17;1.70;;;1.60;;
73107;SDS011;61559;50.476;15.588;2023-08-07T02:05:48;1.60;;;1.30;;
73107;SDS011;61559;50.476;15.588;2023-08-07T02:08:19;1.00;;;1.00;;
73107;SDS011;61559;50.476;15.588;2023-08-07T02:10:50;0.80;;;0.80;;
73107;SDS011;61559;50.476;15.588;2023-08-07T02:13:21;0.90;;;0.90;;
73107;SDS011;61559;50.476;15.588;2023-08-07T02:15:53;1.70;;;1.10;;
73107;SDS011;61559;50.476;15.588;2023-08-07T02:18:24;1.80;;;1.10;;
73107;SDS011;61559;50.476;15.588;2023-08-07T02:20:55;1.30;;;1.20;;
73107;SDS011;61559;50.476;15.588;2023-08-07T02:23:26;1.40;;;1.10;;
73107;SDS011;61559;50.476;15.588;2023-08-07T02:25:57;1.20;;;1.10;;
73107;SDS011;61559;50.476;15.588;2023-08-07T02:28:28;2.10;;;1.30;;
73107;SDS011;61559;50.476;15.588;2023-08-07T02:30:59;1.60;;;1.00;;
73107;SDS011;61559;50.476;15.588;2023-08-07T02:33:30;2.00;;;1.30;;
73107;SDS011;61559;50.476;15.588;2023-08-07T02:36:02;1.40;;;1.20;;
73107;SDS011;61559;50.476;15.588;2023-08-07T02:38:33;2.20;;;1.40;;
73107;SDS011;61559;50.476;15.588;2023-08-07T02:41:04;2.20;;;2.00;;
73107;SDS011;61559;50.476;15.588;2023-08-07T02:43:35;1.90;;;1.70;;
73107;SDS011;61559;50.476;15.588;2023-08-07T02:46:06;3.00;;;2.30;;
73107;SDS011;61559;50.476;15.588;2023-08-07T02:48:37;1.90;;;1.80;;
73107;SDS011;61559;50.476;15.588;2023-08-07T02:51:08;3.40;;;3.10;;
73107;SDS011;61559;50.476;15.588;2023-08-07T02:53:40;4.10;;;3.70;;
73107;SDS011;61559;50.476;15.588;2023-08-07T02:56:11;3.40;;;3.00;;
73107;SDS011;61559;50.476;15.588;2023-08-07T02:58:42;3.30;;;3.00;;
73107;SDS011;61559;50.476;15.588;2023-08-07T03:01:13;2.70;;;2.50;;
73107;SDS011;61559;50.476;15.588;2023-08-07T03:03:44;2.90;;;2.60;;
73107;SDS011;61559;50.476;15.588;2023-08-07T03:06:15;4.20;;;3.10;;
73107;SDS011;61559;50.476;15.588;2023-08-07T03:08:46;4.20;;;3.20;;
73107;SDS011;61559;50.476;15.588;2023-08-07T03:11:17;4.00;;;3.10;;
73107;SDS011;61559;50.476;15.588;2023-08-07T03:13:48;5.50;;;3.30;;
73107;SDS011;61559;50.476;15.588;2023-08-07T03:16:19;4.60;;;2.70;;
73107;SDS011;61559;50.476;15.588;2023-08-07T03:18:50;3.50;;;3.20;;
73107;SDS011;61559;50.476;15.588;2023-08-07T03:21:21;3.40;;;3.10;;
73107;SDS011;61559;50.476;15.588;2023-08-07T03:23:53;2.70;;;2.20;;
73107;SDS011;61559;50.476;15.588;2023-08-07T03:26:24;3.60;;;2.30;;
73107;SDS011;61559;50.476;15.588;2023-08-07T03:28:55;3.10;;;2.80;;
73107;SDS011;61559;50.476;15.588;2023-08-07T03:31:26;3.70;;;3.10;;
73107;SDS011;61559;50.476;15.588;2023-08-07T03:33:57;3.30;;;2.90;;
73107;SDS011;61559;50.476;15.588;2023-08-07T03:36:28;3.30;;;2.90;;
73107;SDS011;61559;50.476;15.588;2023-08-07T03:38:59;3.50;;;3.20;;
73107;SDS011;61559;50.476;15.588;2023-08-07T03:41:31;3.10;;;2.80;;
73107;SDS011;61559;50.476;15.588;2023-08-07T03:44:02;5.80;;;3.00;;
73107;SDS011;61559;50.476;15.588;2023-08-07T03:46:33;4.80;;;2.80;;
73107;SDS011;61559;50.476;15.588;2023-08-07T03:49:05;3.80;;;3.30;;
73107;SDS011;61559;50.476;15.588;2023-08-07T03:51:36;4.50;;;3.00;;
73107;SDS011;61559;50.476;15.588;2023-08-07T03:54:07;3.00;;;2.70;;
73107;SDS011;61559;50.476;15.588;2023-08-07T03:56:38;3.10;;;2.80;;
73107;SDS011;61559;50.476;15.588;2023-08-07T03:59:09;2.70;;;2.50;;
73107;SDS011;61559;50.476;15.588;2023-08-07T04:01:40;3.40;;;2.80;;
73107;SDS011;61559;50.476;15.588;2023-08-07T04:04:12;3.10;;;2.80;;
73107;SDS011;61559;50.476;15.588;2023-08-07T04:06:43;4.60;;;3.70;;
73107;SDS011;61559;50.476;15.588;2023-08-07T04:09:14;4.60;;;3.30;;
73107;SDS011;61559;50.476;15.588;2023-08-07T04:11:45;6.00;;;3.80;;
73107;SDS011;61559;50.476;15.588;2023-08-07T04:14:16;4.20;;;3.20;;
73107;SDS011;61559;50.476;15.588;2023-08-07T04:16:47;4.80;;;3.60;;
73107;SDS011;61559;50.476;15.588;2023-08-07T04:19:18;6.00;;;3.50;;
73107;SDS011;61559;50.476;15.588;2023-08-07T04:21:50;5.70;;;3.60;;
73107;SDS011;61559;50.476;15.588;2023-08-07T04:24:21;4.90;;;3.60;;
73107;SDS011;61559;50.476;15.588;2023-08-07T04:26:55;4.60;;;3.30;;
73107;SDS011;61559;50.476;15.588;2023-08-07T04:29:26;3.40;;;3.10;;
73107;SDS011;61559;50.476;15.588;2023-08-07T04:31:57;4.50;;;3.30;;
73107;SDS011;61559;50.476;15.588;2023-08-07T04:34:28;4.00;;;3.40;;
73107;SDS011;61559;50.476;15.588;2023-08-07T04:36:59;2.60;;;2.40;;
73107;SDS011;61559;50.476;15.588;2023-08-07T04:39:30;2.50;;;2.20;;
73107;SDS011;61559;50.476;15.588;2023-08-07T04:42:02;2.10;;;1.90;;
73107;SDS011;61559;50.476;15.588;2023-08-07T04:44:33;2.20;;;1.90;;
73107;SDS011;61559;50.476;15.588;2023-08-07T04:47:05;1.90;;;1.80;;
73107;SDS011;61559;50.476;15.588;2023-08-07T04:49:36;1.70;;;1.60;;
73107;SDS011;61559;50.476;15.588;2023-08-07T04:52:07;2.90;;;2.00;;
73107;SDS011;61559;50.476;15.588;2023-08-07T04:54:52;1.70;;;1.60;;
73107;SDS011;61559;50.476;15.588;2023-08-07T04:57:23;2.80;;;1.80;;
73107;SDS011;61559;50.476;15.588;2023-08-07T04:59:55;1.70;;;1.60;;
73107;SDS011;61559;50.476;15.588;2023-08-07T05:02:26;1.40;;;1.30;;
73107;SDS011;61559;50.476;15.588;2023-08-07T05:04:57;1.70;;;1.60;;
73107;SDS011;61559;50.476;15.588;2023-08-07T05:07:29;1.30;;;1.20;;
73107;SDS011;61559;50.476;15.588;2023-08-07T05:10:02;1.70;;;1.10;;
73107;SDS011;61559;50.476;15.588;2023-08-07T05:12:34;1.80;;;1.00;;
73107;SDS011;61559;50.476;15.588;2023-08-07T05:15:05;0.90;;;0.80;;
73107;SDS011;61559;50.476;15.588;2023-08-07T05:17:37;0.80;;;0.80;;
73107;SDS011;61559;50.476;15.588;2023-08-07T05:20:09;1.00;;;1.00;;
73107;SDS011;61559;50.476;15.588;2023-08-07T05:22:40;1.20;;;1.00;;
73107;SDS011;61559;50.476;15.588;2023-08-07T05:25:11;1.30;;;1.20;;
73107;SDS011;61559;50.476;15.588;2023-08-07T05:27:44;1.20;;;1.10;;
73107;SDS011;61559;50.476;15.588;2023-08-07T05:30:15;1.20;;;1.10;;
73107;SDS011;61559;50.476;15.588;2023-08-07T05:32:46;1.20;;;1.00;;
73107;SDS011;61559;50.476;15.588;2023-08-07T05:35:18;2.20;;;0.80;;
73107;SDS011;61559;50.476;15.588;2023-08-07T05:37:49;0.70;;;0.70;;
73107;SDS011;61559;50.476;15.588;2023-08-07T05:40:20;0.70;;;0.70;;
73107;SDS011;61559;50.476;15.588;2023-08-07T05:42:51;1.00;;;0.90;;
73107;SDS011;61559;50.476;15.588;2023-08-07T05:45:22;0.80;;;0.80;;
73107;SDS011;61559;50.476;15.588;2023-08-07T05:47:53;0.70;;;0.70;;
73107;SDS011;61559;50.476;15.588;2023-08-07T05:50:24;1.30;;;1.20;;
73107;SDS011;61559;50.476;15.588;2023-08-07T05:52:55;6.70;;;4.60;;
73107;SDS011;61559;50.476;15.588;2023-08-07T05:55:26;1.60;;;1.30;;
73107;SDS011;61559;50.476;15.588;2023-08-07T05:57:57;1.70;;;1.60;;
73107;SDS011;61559;50.476;15.588;2023-08-07T06:00:28;2.20;;;1.40;;
73107;SDS011;61559;50.476;15.588;2023-08-07T06:02:59;1.70;;;1.10;;
73107;SDS011;61559;50.476;15.588;2023-08-07T06:05:30;1.20;;;1.00;;
73107;SDS011;61559;50.476;15.588;2023-08-07T06:08:01;1.10;;;0.90;;
73107;SDS011;61559;50.476;15.588;2023-08-07T06:10:32;2.40;;;1.20;;
73107;SDS011;61559;50.476;15.588;2023-08-07T06:13:04;1.50;;;1.20;;
73107;SDS011;61559;50.476;15.588;2023-08-07T06:15:41;2.10;;;1.20;;
73107;SDS011;61559;50.476;15.588;2023-08-07T06:18:12;1.80;;;1.40;;
73107;SDS011;61559;50.476;15.588;2023-08-07T06:20:43;1.20;;;1.10;;
73107;SDS011;61559;50.476;15.588;2023-08-07T06:23:15;2.00;;;1.20;;
73107;SDS011;61559;50.476;15.588;2023-08-07T06:25:45;2.30;;;1.20;;
73107;SDS011;61559;50.476;15.588;2023-08-07T06:28:20;4.20;;;2.10;;
73107;SDS011;61559;50.476;15.588;2023-08-07T06:30:51;3.00;;;1.90;;
73107;SDS011;61559;50.476;15.588;2023-08-07T06:33:22;1.50;;;1.40;;
73107;SDS011;61559;50.476;15.588;2023-08-07T06:35:54;1.60;;;1.00;;
73107;SDS011;61559;50.476;15.588;2023-08-07T06:38:25;3.00;;;1.30;;
73107;SDS011;61559;50.476;15.588;2023-08-07T06:40:56;1.60;;;1.30;;
73107;SDS011;61559;50.476;15.588;2023-08-07T06:43:27;2.10;;;1.70;;
73107;SDS011;61559;50.476;15.588;2023-08-07T06:45:58;2.30;;;1.30;;
73107;SDS011;61559;50.476;15.588;2023-08-07T06:48:30;1.50;;;1.10;;
73107;SDS011;61559;50.476;15.588;2023-08-07T06:51:01;1.20;;;1.00;;
73107;SDS011;61559;50.476;15.588;2023-08-07T06:53:33;2.20;;;1.20;;
73107;SDS011;61559;50.476;15.588;2023-08-07T06:56:04;1.00;;;0.90;;
73107;SDS011;61559;50.476;15.588;2023-08-07T06:58:35;2.90;;;1.00;;
73107;SDS011;61559;50.476;15.588;2023-08-07T07:01:06;1.30;;;1.10;;
73107;SDS011;61559;50.476;15.588;2023-08-07T07:03:38;2.80;;;1.30;;
73107;SDS011;61559;50.476;15.588;2023-08-07T07:06:09;1.50;;;1.20;;
73107;SDS011;61559;50.476;15.588;2023-08-07T07:08:40;1.60;;;1.20;;
73107;SDS011;61559;50.476;15.588;2023-08-07T07:11:12;2.40;;;1.20;;
73107;SDS011;61559;50.476;15.588;2023-08-07T07:13:43;1.80;;;1.20;;
73107;SDS011;61559;50.476;15.588;2023-08-07T07:16:14;2.90;;;1.20;;
73107;SDS011;61559;50.476;15.588;2023-08-07T07:18:46;1.70;;;1.20;;
73107;SDS011;61559;50.476;15.588;2023-08-07T07:21:17;1.40;;;0.90;;
73107;SDS011;61559;50.476;15.588;2023-08-07T07:23:48;1.40;;;1.20;;
73107;SDS011;61559;50.476;15.588;2023-08-07T07:26:19;2.50;;;1.40;;
73107;SDS011;61559;50.476;15.588;2023-08-07T07:28:50;1.20;;;1.10;;
73107;SDS011;61559;50.476;15.588;2023-08-07T07:31:21;2.70;;;1.30;;
73107;SDS011;61559;50.476;15.588;2023-08-07T07:33:52;1.40;;;1.20;;
73107;SDS011;61559;50.476;15.588;2023-08-07T07:36:23;2.40;;;1.20;;
73107;SDS011;61559;50.476;15.588;2023-08-07T07:38:55;2.50;;;1.30;;
73107;SDS011;61559;50.476;15.588;2023-08-07T07:41:25;1.80;;;1.40;;
73107;SDS011;61559;50.476;15.588;2023-08-07T07:43:56;2.80;;;1.50;;
73107;SDS011;61559;50.476;15.588;2023-08-07T07:46:30;1.80;;;1.30;;
73107;SDS011;61559;50.476;15.588;2023-08-07T07:49:01;2.30;;;1.60;;
73107;SDS011;61559;50.476;15.588;2023-08-07T07:51:33;2.10;;;1.50;;
73107;SDS011;61559;50.476;15.588;2023-08-07T07:54:05;3.20;;;1.40;;
73107;SDS011;61559;50.476;15.588;2023-08-07T07:56:42;4.10;;;1.60;;
73107;SDS011;61559;50.476;15.588;2023-08-07T07:59:13;2.10;;;1.70;;
73107;SDS011;61559;50.476;15.588;2023-08-07T08:01:44;3.50;;;1.50;;
73107;SDS011;61559;50.476;15.588;2023-08-07T08:04:15;4.10;;;1.60;;
73107;SDS011;61559;50.476;15.588;2023-08-07T08:06:47;3.40;;;2.00;;
73107;SDS011;61559;50.476;15.588;2023-08-07T08:09:18;3.50;;;2.00;;
73107;SDS011;61559;50.476;15.588;2023-08-07T08:11:49;2.40;;;1.50;;
73107;SDS011;61559;50.476;15.588;2023-08-07T08:14:20;3.70;;;1.90;;
73107;SDS011;61559;50.476;15.588;2023-08-07T08:16:51;2.40;;;1.90;;
73107;SDS011;61559;50.476;15.588;2023-08-07T08:19:23;4.30;;;1.70;;
73107;SDS011;61559;50.476;15.588;2023-08-07T08:22:00;2.50;;;1.60;;
73107;SDS011;61559;50.476;15.588;2023-08-07T08:24:31;4.30;;;2.00;;
73107;SDS011;61559;50.476;15.588;2023-08-07T08:27:03;2.40;;;1.70;;
73107;SDS011;61559;50.476;15.588;2023-08-07T08:29:35;4.60;;;1.90;;
73107;SDS011;61559;50.476;15.588;2023-08-07T08:32:06;2.80;;;2.00;;
73107;SDS011;61559;50.476;15.588;2023-08-07T08:34:37;3.00;;;1.90;;
73107;SDS011;61559;50.476;15.588;2023-08-07T08:37:08;2.80;;;1.90;;
73107;SDS011;61559;50.476;15.588;2023-08-07T08:39:39;3.10;;;1.90;;
73107;SDS011;61559;50.476;15.588;2023-08-07T08:42:11;3.40;;;2.00;;
73107;SDS011;61559;50.476;15.588;2023-08-07T08:44:44;2.20;;;1.80;;
73107;SDS011;61559;50.476;15.588;2023-08-07T08:47:20;3.40;;;2.10;;
73107;SDS011;61559;50.476;15.588;2023-08-07T08:49:54;3.40;;;2.20;;
73107;SDS011;61559;50.476;15.588;2023-08-07T08:52:30;4.10;;;2.00;;
73107;SDS011;61559;50.476;15.588;2023-08-07T08:55:02;2.00;;;1.50;;
73107;SDS011;61559;50.476;15.588;2023-08-07T08:57:34;4.50;;;2.70;;
73107;SDS011;61559;50.476;15.588;2023-08-07T09:00:07;3.70;;;2.40;;
73107;SDS011;61559;50.476;15.588;2023-08-07T09:02:46;3.10;;;2.10;;
73107;SDS011;61559;50.476;15.588;2023-08-07T09:05:18;4.20;;;2.30;;
73107;SDS011;61559;50.476;15.588;2023-08-07T09:07:50;3.10;;;1.80;;
73107;SDS011;61559;50.476;15.588;2023-08-07T09:10:21;3.60;;;2.60;;
73107;SDS011;61559;50.476;15.588;2023-08-07T09:12:56;2.60;;;2.20;;
73107;SDS011;61559;50.476;15.588;2023-08-07T09:15:31;3.50;;;2.40;;
73107;SDS011;61559;50.476;15.588;2023-08-07T09:18:05;3.90;;;2.20;;
73107;SDS011;61559;50.476;15.588;2023-08-07T09:20:38;3.60;;;2.40;;
73107;SDS011;61559;50.476;15.588;2023-08-07T09:23:11;4.70;;;2.50;;
73107;SDS011;61559;50.476;15.588;2023-08-07T09:25:43;4.50;;;2.30;;
73107;SDS011;61559;50.476;15.588;2023-08-07T09:28:15;3.10;;;1.90;;
73107;SDS011;61559;50.476;15.588;2023-08-07T09:30:45;3.20;;;2.50;;
73107;SDS011;61559;50.476;15.588;2023-08-07T09:33:18;2.70;;;2.10;;
73107;SDS011;61559;50.476;15.588;2023-08-07T09:35:58;3.10;;;2.30;;
73107;SDS011;61559;50.476;15.588;2023-08-07T09:38:30;2.30;;;2.00;;
73107;SDS011;61559;50.476;15.588;2023-08-07T09:41:02;3.80;;;2.10;;
73107;SDS011;61559;50.476;15.588;2023-08-07T09:43:35;3.60;;;1.80;;
73107;SDS011;61559;50.476;15.588;2023-08-07T09:46:06;2.50;;;1.90;;
73107;SDS011;61559;50.476;15.588;2023-08-07T09:48:40;3.80;;;2.20;;
73107;SDS011;61559;50.476;15.588;2023-08-07T09:51:12;2.20;;;1.70;;
73107;SDS011;61559;50.476;15.588;2023-08-07T09:53:43;9.40;;;5.80;;
73107;SDS011;61559;50.476;15.588;2023-08-07T09:56:16;5.40;;;3.30;;
73107;SDS011;61559;50.476;15.588;2023-08-07T09:58:50;4.50;;;2.20;;
73107;SDS011;61559;50.476;15.588;2023-08-07T10:01:23;2.50;;;2.10;;
73107;SDS011;61559;50.476;15.588;2023-08-07T10:03:56;3.30;;;2.00;;
73107;SDS011;61559;50.476;15.588;2023-08-07T10:06:28;5.40;;;2.00;;
73107;SDS011;61559;50.476;15.588;2023-08-07T10:09:00;4.50;;;1.80;;
73107;SDS011;61559;50.476;15.588;2023-08-07T10:11:33;2.00;;;1.80;;
73107;SDS011;61559;50.476;15.588;2023-08-07T10:14:04;2.70;;;1.60;;
73107;SDS011;61559;50.476;15.588;2023-08-07T10:16:35;1.80;;;1.70;;
73107;SDS011;61559;50.476;15.588;2023-08-07T10:19:09;3.70;;;1.80;;
73107;SDS011;61559;50.476;15.588;2023-08-07T10:21:41;2.80;;;1.90;;
73107;SDS011;61559;50.476;15.588;2023-08-07T10:24:12;1.90;;;1.70;;
73107;SDS011;61559;50.476;15.588;2023-08-07T10:26:45;3.50;;;1.40;;
73107;SDS011;61559;50.476;15.588;2023-08-07T10:29:17;1.90;;;1.60;;
73107;SDS011;61559;50.476;15.588;2023-08-07T10:31:52;2.80;;;1.70;;
73107;SDS011;61559;50.476;15.588;2023-08-07T10:34:26;1.80;;;1.40;;
73107;SDS011;61559;50.476;15.588;2023-08-07T10:36:59;2.00;;;1.50;;
73107;SDS011;61559;50.476;15.588;2023-08-07T10:39:31;2.60;;;1.80;;
73107;SDS011;61559;50.476;15.588;2023-08-07T10:42:02;2.20;;;1.60;;
73107;SDS011;61559;50.476;15.588;2023-08-07T10:44:44;3.60;;;1.70;;
73107;SDS011;61559;50.476;15.588;2023-08-07T10:47:18;5.70;;;1.70;;
73107;SDS011;61559;50.476;15.588;2023-08-07T10:50:03;2.60;;;1.70;;
73107;SDS011;61559;50.476;15.588;2023-08-07T10:52:36;2.20;;;1.70;;
73107;SDS011;61559;50.476;15.588;2023-08-07T10:55:13;2.10;;;1.60;;
73107;SDS011;61559;50.476;15.588;2023-08-07T10:57:46;3.10;;;1.80;;
73107;SDS011;61559;50.476;15.588;2023-08-07T11:00:18;1.80;;;1.40;;
73107;SDS011;61559;50.476;15.588;2023-08-07T11:02:56;1.70;;;1.40;;
73107;SDS011;61559;50.476;15.588;2023-08-07T11:05:31;2.20;;;1.80;;
73107;SDS011;61559;50.476;15.588;2023-08-07T11:08:02;2.10;;;1.70;;
73107;SDS011;61559;50.476;15.588;2023-08-07T11:10:33;2.00;;;1.50;;
73107;SDS011;61559;50.476;15.588;2023-08-07T11:13:04;2.30;;;1.70;;
73107;SDS011;61559;50.476;15.588;2023-08-07T11:15:35;2.30;;;1.60;;
73107;SDS011;61559;50.476;15.588;2023-08-07T11:18:07;1.40;;;1.20;;
73107;SDS011;61559;50.476;15.588;2023-08-07T11:20:38;2.90;;;1.20;;
73107;SDS011;61559;50.476;15.588;2023-08-07T11:23:09;2.80;;;1.40;;
73107;SDS011;61559;50.476;15.588;2023-08-07T11:25:40;1.70;;;1.30;;
73107;SDS011;61559;50.476;15.588;2023-08-07T11:28:12;1.40;;;1.10;;
73107;SDS011;61559;50.476;15.588;2023-08-07T11:30:43;1.50;;;1.20;;
73107;SDS011;61559;50.476;15.588;2023-08-07T11:33:14;1.20;;;1.00;;
73107;SDS011;61559;50.476;15.588;2023-08-07T11:35:46;1.20;;;1.00;;
73107;SDS011;61559;50.476;15.588;2023-08-07T11:38:29;1.60;;;1.10;;
73107;SDS011;61559;50.476;15.588;2023-08-07T11:41:01;1.80;;;1.30;;
73107;SDS011;61559;50.476;15.588;2023-08-07T11:43:34;1.60;;;1.20;;
73107;SDS011;61559;50.476;15.588;2023-08-07T11:46:06;4.20;;;1.50;;
73107;SDS011;61559;50.476;15.588;2023-08-07T11:48:38;1.40;;;1.10;;
73107;SDS011;61559;50.476;15.588;2023-08-07T11:51:10;3.10;;;1.40;;
73107;SDS011;61559;50.476;15.588;2023-08-07T11:53:42;1.30;;;1.10;;
73107;SDS011;61559;50.476;15.588;2023-08-07T11:56:13;1.50;;;0.90;;
73107;SDS011;61559;50.476;15.588;2023-08-07T11:58:45;3.90;;;1.20;;
73107;SDS011;61559;50.476;15.588;2023-08-07T12:01:18;0.80;;;0.80;;
73107;SDS011;61559;50.476;15.588;2023-08-07T12:03:53;1.80;;;1.10;;
73107;SDS011;61559;50.476;15.588;2023-08-07T12:06:26;1.80;;;0.90;;
73107;SDS011;61559;50.476;15.588;2023-08-07T12:08:57;0.80;;;0.70;;
73107;SDS011;61559;50.476;15.588;2023-08-07T12:11:29;1.90;;;1.10;;
73107;SDS011;61559;50.476;15.588;2023-08-07T12:14:00;2.20;;;1.00;;
73107;SDS011;61559;50.476;15.588;2023-08-07T12:16:33;1.50;;;1.00;;
73107;SDS011;61559;50.476;15.588;2023-08-07T12:19:05;2.30;;;1.10;;
73107;SDS011;61559;50.476;15.588;2023-08-07T12:21:36;1.50;;;0.80;;
73107;SDS011;61559;50.476;15.588;2023-08-07T12:24:08;1.30;;;0.90;;
73107;SDS011;61559;50.476;15.588;2023-08-07T12:26:39;1.50;;;1.00;;
73107;SDS011;61559;50.476;15.588;2023-08-07T12:29:10;3.40;;;0.90;;
73107;SDS011;61559;50.476;15.588;2023-08-07T12:31:41;1.50;;;1.10;;
73107;SDS011;61559;50.476;15.588;2023-08-07T12:34:12;1.00;;;0.80;;
73107;SDS011;61559;50.476;15.588;2023-08-07T12:36:47;1.30;;;0.70;;
73107;SDS011;61559;50.476;15.588;2023-08-07T12:39:18;3.30;;;1.40;;
73107;SDS011;61559;50.476;15.588;2023-08-07T12:42:11;2.10;;;0.90;;
73107;SDS011;61559;50.476;15.588;2023-08-07T12:44:45;1.20;;;1.00;;
73107;SDS011;61559;50.476;15.588;2023-08-07T12:47:16;1.00;;;0.90;;
73107;SDS011;61559;50.476;15.588;2023-08-07T12:49:47;1.70;;;0.80;;
73107;SDS011;61559;50.476;15.588;2023-08-07T12:52:18;1.40;;;0.80;;
73107;SDS011;61559;50.476;15.588;2023-08-07T12:54:49;2.90;;;0.90;;
73107;SDS011;61559;50.476;15.588;2023-08-07T12:57:20;1.70;;;0.80;;
73107;SDS011;61559;50.476;15.588;2023-08-07T12:59:54;1.00;;;0.80;;
73107;SDS011;61559;50.476;15.588;2023-08-07T13:02:25;1.80;;;0.70;;
73107;SDS011;61559;50.476;15.588;2023-08-07T13:04:56;0.80;;;0.70;;
73107;SDS011;61559;50.476;15.588;2023-08-07T13:07:28;0.80;;;0.70;;
73107;SDS011;61559;50.476;15.588;2023-08-07T13:09:58;1.80;;;1.10;;
73107;SDS011;61559;50.476;15.588;2023-08-07T13:12:30;1.50;;;0.70;;
73107;SDS011;61559;50.476;15.588;2023-08-07T13:15:04;1.40;;;0.80;;
73107;SDS011;61559;50.476;15.588;2023-08-07T13:17:36;2.30;;;0.90;;
73107;SDS011;61559;50.476;15.588;2023-08-07T13:20:11;1.00;;;0.90;;
73107;SDS011;61559;50.476;15.588;2023-08-07T13:22:44;1.80;;;1.10;;
73107;SDS011;61559;50.476;15.588;2023-08-07T13:25:15;0.90;;;0.80;;
73107;SDS011;61559;50.476;15.588;2023-08-07T13:27:46;1.70;;;0.90;;
73107;SDS011;61559;50.476;15.588;2023-08-07T13:30:17;1.40;;;0.90;;
73107;SDS011;61559;50.476;15.588;2023-08-07T13:32:49;0.70;;;0.60;;
73107;SDS011;61559;50.476;15.588;2023-08-07T13:35:20;0.80;;;0.70;;
73107;SDS011;61559;50.476;15.588;2023-08-07T13:37:52;3.20;;;0.80;;
73107;SDS011;61559;50.476;15.588;2023-08-07T13:40:23;1.50;;;0.90;;
73107;SDS011;61559;50.476;15.588;2023-08-07T13:42:54;1.20;;;0.90;;
73107;SDS011;61559;50.476;15.588;2023-08-07T13:45:25;1.30;;;0.80;;
73107;SDS011;61559;50.476;15.588;2023-08-07T13:47:56;1.10;;;0.90;;
73107;SDS011;61559;50.476;15.588;2023-08-07T13:50:27;1.40;;;1.30;;
73107;SDS011;61559;50.476;15.588;2023-08-07T13:52:59;0.90;;;0.70;;
73107;SDS011;61559;50.476;15.588;2023-08-07T13:55:41;1.10;;;1.00;;
73107;SDS011;61559;50.476;15.588;2023-08-07T13:58:13;1.60;;;1.10;;
73107;SDS011;61559;50.476;15.588;2023-08-07T14:00:44;1.00;;;0.90;;
73107;SDS011;61559;50.476;15.588;2023-08-07T14:03:16;1.40;;;1.00;;
73107;SDS011;61559;50.476;15.588;2023-08-07T14:05:48;1.00;;;0.90;;
73107;SDS011;61559;50.476;15.588;2023-08-07T14:08:19;0.80;;;0.70;;
73107;SDS011;61559;50.476;15.588;2023-08-07T14:10:51;0.80;;;0.80;;
73107;SDS011;61559;50.476;15.588;2023-08-07T14:13:22;0.90;;;0.80;;
73107;SDS011;61559;50.476;15.588;2023-08-07T14:15:53;1.20;;;0.70;;
73107;SDS011;61559;50.476;15.588;2023-08-07T14:18:24;0.80;;;0.60;;
73107;SDS011;61559;50.476;15.588;2023-08-07T14:20:56;2.50;;;0.70;;
73107;SDS011;61559;50.476;15.588;2023-08-07T14:23:30;0.80;;;0.70;;
73107;SDS011;61559;50.476;15.588;2023-08-07T14:26:02;1.40;;;0.70;;
73107;SDS011;61559;50.476;15.588;2023-08-07T14:28:33;1.50;;;0.80;;
73107;SDS011;61559;50.476;15.588;2023-08-07T14:31:07;1.10;;;0.60;;
73107;SDS011;61559;50.476;15.588;2023-08-07T14:33:39;2.20;;;0.70;;
73107;SDS011;61559;50.476;15.588;2023-08-07T14:36:10;1.00;;;0.70;;
73107;SDS011;61559;50.476;15.588;2023-08-07T14:38:43;1.10;;;1.00;;
73107;SDS011;61559;50.476;15.588;2023-08-07T14:41:14;1.30;;;0.70;;
73107;SDS011;61559;50.476;15.588;2023-08-07T14:43:46;1.80;;;1.00;;
73107;SDS011;61559;50.476;15.588;2023-08-07T14:46:18;1.20;;;0.80;;
73107;SDS011;61559;50.476;15.588;2023-08-07T14:48:50;1.40;;;0.80;;
73107;SDS011;61559;50.476;15.588;2023-08-07T14:51:21;2.20;;;0.90;;
73107;SDS011;61559;50.476;15.588;2023-08-07T14:53:52;2.00;;;0.70;;
73107;SDS011;61559;50.476;15.588;2023-08-07T14:56:23;2.00;;;0.70;;
73107;SDS011;61559;50.476;15.588;2023-08-07T14:58:54;1.60;;;0.90;;
73107;SDS011;61559;50.476;15.588;2023-08-07T15:01:26;1.20;;;0.90;;